sensor_id;sensor_type;location;lat;lon;timestamp;pressure;altitude;pressure_sealevel;temperature;humidity
45731;BME280;31440;48.584;13.460;2022-10-16T00:00:33;96888.06;;;12.45;100.00
45731;BME280;31440;48.584;13.460;2022-10-16T00:02:59;96894.69;;;12.71;100.00
45731;BME280;31440;48.584;13.460;2022-10-16T00:05:25;96896.53;;;12.69;100.00
45731;BME280;31440;48.584;13.460;2022-10-16T00:07:50;96884.06;;;12.37;100.00
45731;BME280;31440;48.584;13.460;2022-10-16T00:10:16;96879.66;;;12.39;100.00
45731;BME280;31440;48.584;13.460;2022-10-16T00:12:42;96882.44;;;12.54;100.00
45731;BME280;31440;48.584;13.460;2022-10-16T00:15:08;96891.41;;;12.68;100.00
45731;BME280;31440;48.584;13.460;2022-10-16T00:17:33;96886.66;;;12.18;100.00
45731;BME280;31440;48.584;13.460;2022-10-16T00:19:59;96881.31;;;12.41;100.00
45731;BME280;31440;48.584;13.460;2022-10-16T00:22:43;96877.28;;;12.53;100.00
45731;BME280;31440;48.584;13.460;2022-10-16T00:25:08;96880.13;;;12.48;100.00
45731;BME280;31440;48.584;13.460;2022-10-16T00:27:34;96885.41;;;12.27;100.00
45731;BME280;31440;48.584;13.460;2022-10-16T00:30:00;96885.41;;;12.47;100.00
45731;BME280;31440;48.584;13.460;2022-10-16T00:32:26;96893.56;;;12.58;100.00
45731;BME280;31440;48.584;13.460;2022-10-16T00:34:51;96895.84;;;12.47;100.00
45731;BME280;31440;48.584;13.460;2022-10-16T00:37:20;96901.84;;;12.29;100.00
45731;BME280;31440;48.584;13.460;2022-10-16T00:39:46;96889.00;;;12.24;100.00
45731;BME280;31440;48.584;13.460;2022-10-16T00:42:16;96901.81;;;12.49;100.00
45731;BME280;31440;48.584;13.460;2022-10-16T00:44:52;96894.75;;;12.32;100.00
45731;BME280;31440;48.584;13.460;2022-10-16T00:47:30;96911.81;;;12.77;100.00
45731;BME280;31440;48.584;13.460;2022-10-16T00:50:02;96913.03;;;12.51;100.00
45731;BME280;31440;48.584;13.460;2022-10-16T00:52:30;96919.38;;;12.64;100.00
45731;BME280;31440;48.584;13.460;2022-10-16T00:54:57;96919.44;;;12.63;100.00
45731;BME280;31440;48.584;13.460;2022-10-16T00:57:24;96915.56;;;12.71;100.00
45731;BME280;31440;48.584;13.460;2022-10-16T00:59:50;96920.72;;;12.73;100.00
45731;BME280;31440;48.584;13.460;2022-10-16T01:02:16;96918.41;;;12.67;100.00
45731;BME280;31440;48.584;13.460;2022-10-16T01:04:52;96910.28;;;12.54;100.00
45731;BME280;31440;48.584;13.460;2022-10-16T01:13:33;96915.84;;;12.26;100.00
45731;BME280;31440;48.584;13.460;2022-10-16T01:16:14;96914.56;;;12.16;100.00
45731;BME280;31440;48.584;13.460;2022-10-16T01:18:47;96908.69;;;12.31;100.00
45731;BME280;31440;48.584;13.460;2022-10-16T01:21:22;96917.59;;;11.86;100.00
45731;BME280;31440;48.584;13.460;2022-10-16T01:24:03;96912.56;;;12.02;100.00
45731;BME280;31440;48.584;13.460;2022-10-16T01:32:33;96910.41;;;12.12;100.00
45731;BME280;31440;48.584;13.460;2022-10-16T01:40:25;96920.09;;;12.29;100.00
45731;BME280;31440;48.584;13.460;2022-10-16T01:43:15;96919.50;;;12.42;100.00
45731;BME280;31440;48.584;13.460;2022-10-16T01:45:44;96921.44;;;12.37;100.00
45731;BME280;31440;48.584;13.460;2022-10-16T01:48:13;96922.34;;;11.97;100.00
45731;BME280;31440;48.584;13.460;2022-10-16T01:50:41;96927.06;;;12.28;100.00
45731;BME280;31440;48.584;13.460;2022-10-16T01:53:11;96920.59;;;12.37;100.00
45731;BME280;31440;48.584;13.460;2022-10-16T01:55:41;96924.59;;;12.05;100.00
45731;BME280;31440;48.584;13.460;2022-10-16T01:58:11;96917.88;;;12.19;100.00
45731;BME280;31440;48.584;13.460;2022-10-16T02:00:40;96917.09;;;12.17;100.00
45731;BME280;31440;48.584;13.460;2022-10-16T02:03:09;96918.34;;;12.09;100.00
45731;BME280;31440;48.584;13.460;2022-10-16T02:05:49;96920.25;;;11.65;100.00
45731;BME280;31440;48.584;13.460;2022-10-16T02:08:17;96925.28;;;11.89;100.00
45731;BME280;31440;48.584;13.460;2022-10-16T02:10:42;96926.47;;;12.21;100.00
45731;BME280;31440;48.584;13.460;2022-10-16T02:13:36;96935.38;;;11.97;100.00
45731;BME280;31440;48.584;13.460;2022-10-16T02:16:03;96935.22;;;12.20;100.00
45731;BME280;31440;48.584;13.460;2022-10-16T02:18:29;96929.09;;;12.01;100.00
45731;BME280;31440;48.584;13.460;2022-10-16T02:21:02;96933.66;;;12.16;100.00
45731;BME280;31440;48.584;13.460;2022-10-16T02:23:54;96935.94;;;12.04;100.00
45731;BME280;31440;48.584;13.460;2022-10-16T02:26:44;96938.47;;;11.85;100.00
45731;BME280;31440;48.584;13.460;2022-10-16T02:29:17;96939.34;;;11.85;100.00
45731;BME280;31440;48.584;13.460;2022-10-16T02:31:45;96935.97;;;11.41;100.00
45731;BME280;31440;48.584;13.460;2022-10-16T02:34:13;96940.22;;;11.22;100.00
45731;BME280;31440;48.584;13.460;2022-10-16T02:36:40;96947.19;;;11.64;100.00
45731;BME280;31440;48.584;13.460;2022-10-16T02:39:08;96943.28;;;11.53;100.00
45731;BME280;31440;48.584;13.460;2022-10-16T02:41:34;96945.78;;;11.57;100.00
45731;BME280;31440;48.584;13.460;2022-10-16T02:43:59;96946.75;;;11.54;100.00
45731;BME280;31440;48.584;13.460;2022-10-16T02:46:25;96952.03;;;11.73;100.00
45731;BME280;31440;48.584;13.460;2022-10-16T02:48:50;96940.94;;;11.68;100.00
45731;BME280;31440;48.584;13.460;2022-10-16T02:51:16;96948.63;;;11.50;100.00
45731;BME280;31440;48.584;13.460;2022-10-16T02:53:41;96943.69;;;11.23;100.00
45731;BME280;31440;48.584;13.460;2022-10-16T02:56:07;96945.34;;;11.45;100.00
45731;BME280;31440;48.584;13.460;2022-10-16T02:58:33;96936.22;;;10.90;100.00
45731;BME280;31440;48.584;13.460;2022-10-16T03:00:59;96947.63;;;11.09;100.00
45731;BME280;31440;48.584;13.460;2022-10-16T03:03:25;96951.81;;;11.13;100.00
45731;BME280;31440;48.584;13.460;2022-10-16T03:05:50;96953.50;;;11.14;100.00
45731;BME280;31440;48.584;13.460;2022-10-16T03:08:16;96957.94;;;11.34;100.00
45731;BME280;31440;48.584;13.460;2022-10-16T03:10:42;96966.16;;;11.45;100.00
45731;BME280;31440;48.584;13.460;2022-10-16T03:13:08;96968.53;;;11.51;100.00
45731;BME280;31440;48.584;13.460;2022-10-16T03:15:33;96966.31;;;11.42;100.00
45731;BME280;31440;48.584;13.460;2022-10-16T03:17:59;96967.75;;;11.49;100.00
45731;BME280;31440;48.584;13.460;2022-10-16T03:20:25;96972.78;;;11.54;100.00
45731;BME280;31440;48.584;13.460;2022-10-16T03:22:51;96983.88;;;11.37;100.00
45731;BME280;31440;48.584;13.460;2022-10-16T03:25:17;96983.19;;;11.54;100.00
45731;BME280;31440;48.584;13.460;2022-10-16T03:27:43;96980.81;;;11.70;100.00
45731;BME280;31440;48.584;13.460;2022-10-16T03:30:09;96984.78;;;11.36;100.00
45731;BME280;31440;48.584;13.460;2022-10-16T03:32:34;96980.94;;;11.67;100.00
45731;BME280;31440;48.584;13.460;2022-10-16T03:35:00;96979.28;;;11.64;100.00
45731;BME280;31440;48.584;13.460;2022-10-16T03:37:26;96979.69;;;11.33;100.00
45731;BME280;31440;48.584;13.460;2022-10-16T03:39:51;96982.75;;;11.65;100.00
45731;BME280;31440;48.584;13.460;2022-10-16T03:42:17;96970.00;;;11.37;100.00
45731;BME280;31440;48.584;13.460;2022-10-16T03:44:43;96960.47;;;11.14;100.00
45731;BME280;31440;48.584;13.460;2022-10-16T03:47:08;96962.31;;;11.10;100.00
45731;BME280;31440;48.584;13.460;2022-10-16T03:49:34;96976.91;;;11.14;100.00
45731;BME280;31440;48.584;13.460;2022-10-16T03:51:59;96991.06;;;11.31;100.00
45731;BME280;31440;48.584;13.460;2022-10-16T03:54:25;96993.56;;;11.10;100.00
45731;BME280;31440;48.584;13.460;2022-10-16T03:56:50;96989.19;;;11.34;100.00
45731;BME280;31440;48.584;13.460;2022-10-16T03:59:16;96980.81;;;11.48;100.00
45731;BME280;31440;48.584;13.460;2022-10-16T04:01:41;96985.75;;;11.55;100.00
45731;BME280;31440;48.584;13.460;2022-10-16T04:04:07;96986.81;;;11.50;100.00
45731;BME280;31440;48.584;13.460;2022-10-16T04:06:32;96989.97;;;11.58;100.00
45731;BME280;31440;48.584;13.460;2022-10-16T04:08:58;96989.59;;;11.45;100.00
45731;BME280;31440;48.584;13.460;2022-10-16T04:11:23;96992.88;;;11.50;100.00
45731;BME280;31440;48.584;13.460;2022-10-16T04:13:49;96991.38;;;11.23;100.00
45731;BME280;31440;48.584;13.460;2022-10-16T04:16:15;96995.13;;;11.14;100.00
45731;BME280;31440;48.584;13.460;2022-10-16T04:18:40;96997.78;;;11.36;100.00
45731;BME280;31440;48.584;13.460;2022-10-16T04:21:06;96990.28;;;11.29;100.00
45731;BME280;31440;48.584;13.460;2022-10-16T04:23:33;96985.78;;;11.32;100.00
45731;BME280;31440;48.584;13.460;2022-10-16T04:25:59;96990.88;;;11.57;100.00
45731;BME280;31440;48.584;13.460;2022-10-16T04:28:25;96975.50;;;11.29;100.00
45731;BME280;31440;48.584;13.460;2022-10-16T04:30:50;96986.03;;;11.48;100.00
45731;BME280;31440;48.584;13.460;2022-10-16T04:33:16;96990.16;;;11.53;100.00
45731;BME280;31440;48.584;13.460;2022-10-16T04:35:41;96989.88;;;11.39;100.00
45731;BME280;31440;48.584;13.460;2022-10-16T04:38:07;96993.97;;;11.45;100.00
45731;BME280;31440;48.584;13.460;2022-10-16T04:40:33;97000.34;;;11.38;100.00
45731;BME280;31440;48.584;13.460;2022-10-16T04:43:02;97006.81;;;11.04;100.00
45731;BME280;31440;48.584;13.460;2022-10-16T04:45:28;97009.22;;;11.32;100.00
45731;BME280;31440;48.584;13.460;2022-10-16T04:47:57;97020.91;;;11.22;100.00
45731;BME280;31440;48.584;13.460;2022-10-16T04:50:22;97020.22;;;11.17;100.00
45731;BME280;31440;48.584;13.460;2022-10-16T04:53:03;97019.75;;;11.29;100.00
45731;BME280;31440;48.584;13.460;2022-10-16T04:55:29;97027.22;;;11.38;100.00
45731;BME280;31440;48.584;13.460;2022-10-16T04:57:55;97019.53;;;11.35;100.00
45731;BME280;31440;48.584;13.460;2022-10-16T05:00:20;97010.44;;;11.24;100.00
45731;BME280;31440;48.584;13.460;2022-10-16T05:02:49;96999.97;;;11.25;100.00
45731;BME280;31440;48.584;13.460;2022-10-16T05:05:15;97014.31;;;11.12;100.00
45731;BME280;31440;48.584;13.460;2022-10-16T05:07:40;97000.41;;;11.13;100.00
45731;BME280;31440;48.584;13.460;2022-10-16T05:10:06;97013.22;;;11.19;100.00
45731;BME280;31440;48.584;13.460;2022-10-16T05:12:32;97018.03;;;11.06;100.00
45731;BME280;31440;48.584;13.460;2022-10-16T05:14:59;97019.88;;;11.26;100.00
45731;BME280;31440;48.584;13.460;2022-10-16T05:17:25;97015.34;;;11.31;100.00
45731;BME280;31440;48.584;13.460;2022-10-16T05:19:51;97020.00;;;11.45;100.00
45731;BME280;31440;48.584;13.460;2022-10-16T05:22:17;97025.50;;;11.15;100.00
45731;BME280;31440;48.584;13.460;2022-10-16T05:24:42;97025.09;;;11.03;100.00
45731;BME280;31440;48.584;13.460;2022-10-16T05:27:08;97030.69;;;11.15;100.00
45731;BME280;31440;48.584;13.460;2022-10-16T05:29:33;97044.09;;;10.81;100.00
45731;BME280;31440;48.584;13.460;2022-10-16T05:31:59;97038.09;;;10.79;100.00
45731;BME280;31440;48.584;13.460;2022-10-16T05:34:24;97046.09;;;10.73;100.00
45731;BME280;31440;48.584;13.460;2022-10-16T05:36:50;97042.84;;;10.92;100.00
45731;BME280;31440;48.584;13.460;2022-10-16T05:39:16;97044.88;;;10.83;100.00
45731;BME280;31440;48.584;13.460;2022-10-16T05:41:42;97057.38;;;10.97;100.00
45731;BME280;31440;48.584;13.460;2022-10-16T05:44:07;97050.78;;;10.89;100.00
45731;BME280;31440;48.584;13.460;2022-10-16T05:46:33;97057.50;;;10.71;100.00
45731;BME280;31440;48.584;13.460;2022-10-16T05:48:59;97061.56;;;10.78;100.00
45731;BME280;31440;48.584;13.460;2022-10-16T05:51:24;97065.63;;;10.85;100.00
45731;BME280;31440;48.584;13.460;2022-10-16T05:53:51;97054.28;;;10.88;100.00
45731;BME280;31440;48.584;13.460;2022-10-16T05:56:17;97068.84;;;10.92;100.00
45731;BME280;31440;48.584;13.460;2022-10-16T05:58:42;97070.34;;;10.74;100.00
45731;BME280;31440;48.584;13.460;2022-10-16T06:01:12;97064.78;;;10.84;100.00
45731;BME280;31440;48.584;13.460;2022-10-16T06:03:38;97071.28;;;11.21;100.00
45731;BME280;31440;48.584;13.460;2022-10-16T06:06:11;97076.47;;;11.21;100.00
45731;BME280;31440;48.584;13.460;2022-10-16T06:08:37;97078.31;;;11.41;100.00
45731;BME280;31440;48.584;13.460;2022-10-16T06:11:04;97076.75;;;11.37;100.00
45731;BME280;31440;48.584;13.460;2022-10-16T06:13:29;97075.38;;;11.03;100.00
45731;BME280;31440;48.584;13.460;2022-10-16T06:15:57;97058.97;;;11.01;100.00
45731;BME280;31440;48.584;13.460;2022-10-16T06:18:24;97071.53;;;11.37;100.00
45731;BME280;31440;48.584;13.460;2022-10-16T06:20:50;97067.84;;;11.42;100.00
45731;BME280;31440;48.584;13.460;2022-10-16T06:23:15;97073.78;;;11.68;100.00
45731;BME280;31440;48.584;13.460;2022-10-16T06:25:41;97079.59;;;11.52;100.00
45731;BME280;31440;48.584;13.460;2022-10-16T06:28:06;97073.81;;;11.44;100.00
45731;BME280;31440;48.584;13.460;2022-10-16T06:30:32;97078.13;;;11.45;100.00
45731;BME280;31440;48.584;13.460;2022-10-16T06:32:57;97065.47;;;11.80;100.00
45731;BME280;31440;48.584;13.460;2022-10-16T06:35:23;97076.28;;;11.71;100.00
45731;BME280;31440;48.584;13.460;2022-10-16T06:37:49;97078.56;;;11.57;100.00
45731;BME280;31440;48.584;13.460;2022-10-16T06:40:14;97077.00;;;11.96;100.00
45731;BME280;31440;48.584;13.460;2022-10-16T06:42:41;97093.53;;;12.15;100.00
45731;BME280;31440;48.584;13.460;2022-10-16T06:45:07;97097.09;;;11.93;100.00
45731;BME280;31440;48.584;13.460;2022-10-16T06:47:32;97105.94;;;11.88;100.00
45731;BME280;31440;48.584;13.460;2022-10-16T06:49:58;97116.19;;;11.71;100.00
45731;BME280;31440;48.584;13.460;2022-10-16T06:52:24;97111.22;;;11.87;100.00
45731;BME280;31440;48.584;13.460;2022-10-16T06:54:50;97112.47;;;11.99;100.00
45731;BME280;31440;48.584;13.460;2022-10-16T06:57:15;97116.97;;;11.73;100.00
45731;BME280;31440;48.584;13.460;2022-10-16T06:59:41;97109.28;;;11.92;100.00
45731;BME280;31440;48.584;13.460;2022-10-16T07:02:08;97111.72;;;11.75;100.00
45731;BME280;31440;48.584;13.460;2022-10-16T07:04:35;97108.25;;;11.74;100.00
45731;BME280;31440;48.584;13.460;2022-10-16T07:07:01;97105.50;;;11.99;100.00
45731;BME280;31440;48.584;13.460;2022-10-16T07:09:27;97101.34;;;11.73;100.00
45731;BME280;31440;48.584;13.460;2022-10-16T07:11:53;97110.38;;;11.86;100.00
45731;BME280;31440;48.584;13.460;2022-10-16T07:14:19;97126.06;;;11.85;100.00
45731;BME280;31440;48.584;13.460;2022-10-16T07:16:45;97127.50;;;11.70;100.00
45731;BME280;31440;48.584;13.460;2022-10-16T07:19:11;97130.44;;;12.06;100.00
45731;BME280;31440;48.584;13.460;2022-10-16T07:21:38;97136.31;;;12.11;100.00
45731;BME280;31440;48.584;13.460;2022-10-16T07:24:06;97131.91;;;12.34;100.00
45731;BME280;31440;48.584;13.460;2022-10-16T07:26:34;97133.16;;;12.67;100.00
45731;BME280;31440;48.584;13.460;2022-10-16T07:28:59;97127.53;;;12.76;100.00
45731;BME280;31440;48.584;13.460;2022-10-16T07:31:25;97129.09;;;12.60;100.00
45731;BME280;31440;48.584;13.460;2022-10-16T07:33:51;97129.09;;;12.38;100.00
45731;BME280;31440;48.584;13.460;2022-10-16T07:36:18;97128.69;;;12.69;100.00
45731;BME280;31440;48.584;13.460;2022-10-16T07:38:44;97139.00;;;12.52;100.00
45731;BME280;31440;48.584;13.460;2022-10-16T07:41:12;97134.38;;;12.58;100.00
45731;BME280;31440;48.584;13.460;2022-10-16T07:43:38;97135.63;;;12.50;100.00
45731;BME280;31440;48.584;13.460;2022-10-16T07:46:04;97136.31;;;12.53;100.00
45731;BME280;31440;48.584;13.460;2022-10-16T07:48:31;97145.84;;;12.75;100.00
45731;BME280;31440;48.584;13.460;2022-10-16T07:50:58;97146.50;;;12.38;100.00
45731;BME280;31440;48.584;13.460;2022-10-16T07:53:24;97142.84;;;12.43;100.00
45731;BME280;31440;48.584;13.460;2022-10-16T07:55:50;97158.19;;;12.51;100.00
45731;BME280;31440;48.584;13.460;2022-10-16T07:58:15;97154.44;;;12.14;100.00
45731;BME280;31440;48.584;13.460;2022-10-16T08:00:41;97158.31;;;12.26;100.00
45731;BME280;31440;48.584;13.460;2022-10-16T08:03:08;97157.25;;;12.52;100.00
45731;BME280;31440;48.584;13.460;2022-10-16T08:05:33;97162.34;;;12.55;100.00
45731;BME280;31440;48.584;13.460;2022-10-16T08:08:01;97168.22;;;13.21;100.00
45731;BME280;31440;48.584;13.460;2022-10-16T08:10:28;97167.69;;;13.13;100.00
45731;BME280;31440;48.584;13.460;2022-10-16T08:12:53;97162.66;;;13.47;100.00
45731;BME280;31440;48.584;13.460;2022-10-16T08:15:19;97165.81;;;13.74;100.00
45731;BME280;31440;48.584;13.460;2022-10-16T08:17:54;97167.78;;;13.88;100.00
45731;BME280;31440;48.584;13.460;2022-10-16T08:20:20;97161.06;;;13.63;100.00
45731;BME280;31440;48.584;13.460;2022-10-16T08:22:46;97169.28;;;13.56;100.00
45731;BME280;31440;48.584;13.460;2022-10-16T08:25:11;97155.88;;;14.00;100.00
45731;BME280;31440;48.584;13.460;2022-10-16T08:27:37;97160.97;;;14.03;100.00
45731;BME280;31440;48.584;13.460;2022-10-16T08:30:02;97166.41;;;14.34;100.00
45731;BME280;31440;48.584;13.460;2022-10-16T08:32:28;97175.47;;;13.91;100.00
45731;BME280;31440;48.584;13.460;2022-10-16T08:34:54;97179.94;;;13.89;100.00
45731;BME280;31440;48.584;13.460;2022-10-16T08:37:20;97179.50;;;13.98;100.00
45731;BME280;31440;48.584;13.460;2022-10-16T08:39:45;97183.31;;;13.91;100.00
45731;BME280;31440;48.584;13.460;2022-10-16T08:42:16;97181.63;;;14.09;100.00
45731;BME280;31440;48.584;13.460;2022-10-16T08:50:21;97192.44;;;14.90;100.00
45731;BME280;31440;48.584;13.460;2022-10-16T08:52:48;97192.50;;;14.36;100.00
45731;BME280;31440;48.584;13.460;2022-10-16T08:55:30;97188.25;;;14.33;100.00
45731;BME280;31440;48.584;13.460;2022-10-16T08:57:56;97184.03;;;14.30;100.00
45731;BME280;31440;48.584;13.460;2022-10-16T09:00:21;97189.22;;;14.49;100.00
45731;BME280;31440;48.584;13.460;2022-10-16T09:02:55;97191.44;;;14.40;100.00
45731;BME280;31440;48.584;13.460;2022-10-16T09:05:59;97193.13;;;14.41;100.00
45731;BME280;31440;48.584;13.460;2022-10-16T09:16:30;97195.50;;;15.66;100.00
45731;BME280;31440;48.584;13.460;2022-10-16T09:19:13;97201.53;;;15.99;100.00
45731;BME280;31440;48.584;13.460;2022-10-16T09:21:44;97194.66;;;15.81;100.00
45731;BME280;31440;48.584;13.460;2022-10-16T09:24:18;97190.78;;;15.73;100.00
45731;BME280;31440;48.584;13.460;2022-10-16T09:26:44;97196.16;;;15.37;100.00
45731;BME280;31440;48.584;13.460;2022-10-16T09:29:14;97198.75;;;15.54;100.00
45731;BME280;31440;48.584;13.460;2022-10-16T09:31:41;97197.66;;;16.07;100.00
45731;BME280;31440;48.584;13.460;2022-10-16T09:34:24;97197.03;;;16.17;100.00
45731;BME280;31440;48.584;13.460;2022-10-16T09:36:56;97199.41;;;17.13;100.00
45731;BME280;31440;48.584;13.460;2022-10-16T09:39:22;97201.22;;;17.41;100.00
45731;BME280;31440;48.584;13.460;2022-10-16T09:41:48;97202.72;;;17.45;100.00
45731;BME280;31440;48.584;13.460;2022-10-16T09:46:40;97210.88;;;18.79;100.00
45731;BME280;31440;48.584;13.460;2022-10-16T09:49:26;97217.00;;;18.80;100.00
45731;BME280;31440;48.584;13.460;2022-10-16T09:52:11;97222.88;;;19.10;100.00
45731;BME280;31440;48.584;13.460;2022-10-16T09:54:37;97219.56;;;19.59;100.00
45731;BME280;31440;48.584;13.460;2022-10-16T09:57:13;97216.28;;;19.56;100.00
45731;BME280;31440;48.584;13.460;2022-10-16T09:59:50;97206.38;;;19.59;100.00
45731;BME280;31440;48.584;13.460;2022-10-16T10:02:18;97210.69;;;19.60;100.00
45731;BME280;31440;48.584;13.460;2022-10-16T10:04:49;97213.81;;;20.40;100.00
45731;BME280;31440;48.584;13.460;2022-10-16T10:07:23;97216.84;;;21.07;100.00
45731;BME280;31440;48.584;13.460;2022-10-16T10:09:49;97212.00;;;20.77;100.00
45731;BME280;31440;48.584;13.460;2022-10-16T10:12:23;97210.41;;;20.98;100.00
45731;BME280;31440;48.584;13.460;2022-10-16T10:14:51;97214.09;;;21.19;100.00
45731;BME280;31440;48.584;13.460;2022-10-16T10:17:18;97211.81;;;19.94;100.00
45731;BME280;31440;48.584;13.460;2022-10-16T10:19:59;97207.81;;;20.14;100.00
45731;BME280;31440;48.584;13.460;2022-10-16T10:22:42;97205.13;;;20.27;100.00
45731;BME280;31440;48.584;13.460;2022-10-16T10:25:19;97193.06;;;20.83;100.00
45731;BME280;31440;48.584;13.460;2022-10-16T10:28:17;97198.69;;;21.71;100.00
45731;BME280;31440;48.584;13.460;2022-10-16T10:33:40;97191.84;;;22.24;89.75
45731;BME280;31440;48.584;13.460;2022-10-16T10:36:16;97197.91;;;23.43;87.77
45731;BME280;31440;48.584;13.460;2022-10-16T10:39:15;97195.31;;;22.02;79.26
45731;BME280;31440;48.584;13.460;2022-10-16T10:42:01;97189.91;;;23.01;77.48
45731;BME280;31440;48.584;13.460;2022-10-16T10:50:14;97181.25;;;23.62;82.62
45731;BME280;31440;48.584;13.460;2022-10-16T10:55:51;97181.25;;;22.67;75.23
45731;BME280;31440;48.584;13.460;2022-10-16T11:01:40;97176.81;;;23.20;75.91
45731;BME280;31440;48.584;13.460;2022-10-16T11:04:38;97161.19;;;22.74;74.97
45731;BME280;31440;48.584;13.460;2022-10-16T11:07:20;97175.63;;;23.13;73.75
45731;BME280;31440;48.584;13.460;2022-10-16T11:09:53;97163.25;;;23.44;72.31
45731;BME280;31440;48.584;13.460;2022-10-16T11:12:31;97158.50;;;24.78;68.87
45731;BME280;31440;48.584;13.460;2022-10-16T11:15:14;97169.41;;;24.75;65.83
45731;BME280;31440;48.584;13.460;2022-10-16T11:18:06;97168.25;;;24.29;69.45
45731;BME280;31440;48.584;13.460;2022-10-16T11:20:32;97163.09;;;25.34;66.81
45731;BME280;31440;48.584;13.460;2022-10-16T11:23:05;97169.28;;;25.05;63.00
45731;BME280;31440;48.584;13.460;2022-10-16T11:25:34;97163.19;;;25.42;62.53
45731;BME280;31440;48.584;13.460;2022-10-16T11:28:10;97172.94;;;24.94;65.38
45731;BME280;31440;48.584;13.460;2022-10-16T11:36:00;97172.06;;;25.33;62.84
45731;BME280;31440;48.584;13.460;2022-10-16T11:38:30;97175.63;;;24.25;65.12
45731;BME280;31440;48.584;13.460;2022-10-16T11:41:03;97169.00;;;24.50;64.24
45731;BME280;31440;48.584;13.460;2022-10-16T11:43:36;97175.72;;;24.83;62.94
45731;BME280;31440;48.584;13.460;2022-10-16T11:46:20;97172.78;;;25.81;62.37
45731;BME280;31440;48.584;13.460;2022-10-16T11:48:58;97177.44;;;26.07;62.19
45731;BME280;31440;48.584;13.460;2022-10-16T11:51:40;97159.44;;;26.63;63.49
45731;BME280;31440;48.584;13.460;2022-10-16T11:54:41;97169.69;;;27.47;60.70
45731;BME280;31440;48.584;13.460;2022-10-16T11:57:23;97170.78;;;27.36;54.90
45731;BME280;31440;48.584;13.460;2022-10-16T11:59:59;97169.88;;;26.02;55.77
45731;BME280;31440;48.584;13.460;2022-10-16T12:02:48;97165.47;;;27.19;54.54
45731;BME280;31440;48.584;13.460;2022-10-16T12:05:21;97160.28;;;27.17;54.94
45731;BME280;31440;48.584;13.460;2022-10-16T12:08:10;97163.19;;;27.06;55.45
45731;BME280;31440;48.584;13.460;2022-10-16T12:10:37;97155.69;;;28.05;52.70
45731;BME280;31440;48.584;13.460;2022-10-16T12:13:05;97150.56;;;28.20;53.16
45731;BME280;31440;48.584;13.460;2022-10-16T12:15:50;97152.38;;;28.78;50.56
45731;BME280;31440;48.584;13.460;2022-10-16T12:18:23;97145.53;;;28.17;53.37
45731;BME280;31440;48.584;13.460;2022-10-16T12:20:59;97144.06;;;27.62;52.90
45731;BME280;31440;48.584;13.460;2022-10-16T12:23:30;97150.41;;;26.92;53.14
45731;BME280;31440;48.584;13.460;2022-10-16T12:25:58;97141.31;;;28.06;53.49
45731;BME280;31440;48.584;13.460;2022-10-16T12:28:30;97141.22;;;28.24;52.80
45731;BME280;31440;48.584;13.460;2022-10-16T12:31:04;97134.50;;;28.28;50.60
45731;BME280;31440;48.584;13.460;2022-10-16T12:33:33;97132.53;;;27.88;54.78
45731;BME280;31440;48.584;13.460;2022-10-16T12:36:01;97137.88;;;27.88;51.88
45731;BME280;31440;48.584;13.460;2022-10-16T12:38:46;97134.88;;;28.25;50.96
45731;BME280;31440;48.584;13.460;2022-10-16T12:41:12;97137.31;;;28.10;52.12
45731;BME280;31440;48.584;13.460;2022-10-16T12:43:48;97137.75;;;27.97;52.33
45731;BME280;31440;48.584;13.460;2022-10-16T12:48:42;97141.94;;;28.50;49.21
45731;BME280;31440;48.584;13.460;2022-10-16T12:51:25;97141.06;;;28.33;50.82
45731;BME280;31440;48.584;13.460;2022-10-16T13:05:01;97138.94;;;28.45;49.05
45731;BME280;31440;48.584;13.460;2022-10-16T13:23:36;97159.72;;;29.00;45.70
45731;BME280;31440;48.584;13.460;2022-10-16T13:28:47;97164.59;;;29.04;48.49
45731;BME280;31440;48.584;13.460;2022-10-16T13:31:23;97164.59;;;29.69;47.15
45731;BME280;31440;48.584;13.460;2022-10-16T13:33:52;97170.09;;;29.60;43.81
45731;BME280;31440;48.584;13.460;2022-10-16T13:36:29;97172.28;;;26.95;46.96
45731;BME280;31440;48.584;13.460;2022-10-16T13:39:01;97175.66;;;26.70;49.09
45731;BME280;31440;48.584;13.460;2022-10-16T13:41:31;97177.47;;;25.70;53.51
45731;BME280;31440;48.584;13.460;2022-10-16T13:43:57;97177.72;;;25.01;53.63
45731;BME280;31440;48.584;13.460;2022-10-16T13:46:24;97171.25;;;24.84;54.25
45731;BME280;31440;48.584;13.460;2022-10-16T13:49:04;97172.94;;;25.14;53.91
45731;BME280;31440;48.584;13.460;2022-10-16T13:51:32;97179.38;;;25.11;55.34
45731;BME280;31440;48.584;13.460;2022-10-16T13:53:58;97182.59;;;24.95;57.52
45731;BME280;31440;48.584;13.460;2022-10-16T13:56:29;97184.31;;;25.72;53.46
45731;BME280;31440;48.584;13.460;2022-10-16T13:59:05;97185.47;;;25.60;52.99
45731;BME280;31440;48.584;13.460;2022-10-16T14:01:42;97176.97;;;27.19;51.04
45731;BME280;31440;48.584;13.460;2022-10-16T14:04:11;97168.06;;;27.11;51.37
45731;BME280;31440;48.584;13.460;2022-10-16T14:06:42;97167.50;;;26.72;52.38
45731;BME280;31440;48.584;13.460;2022-10-16T14:11:51;97177.13;;;26.64;51.71
45731;BME280;31440;48.584;13.460;2022-10-16T14:14:19;97176.31;;;26.37;54.79
45731;BME280;31440;48.584;13.460;2022-10-16T14:16:46;97171.34;;;26.24;53.56
45731;BME280;31440;48.584;13.460;2022-10-16T14:19:17;97170.97;;;25.16;54.27
45731;BME280;31440;48.584;13.460;2022-10-16T14:21:44;97179.78;;;25.07;56.21
45731;BME280;31440;48.584;13.460;2022-10-16T14:24:14;97183.22;;;25.46;54.39